Kennebunkport, Maine
Current Conditions -  °F | °C
As of 3:35 PM on Friday 21 Nov 2014 (Local Time) from KSFM Reporting Station
Clear Clear  
Wind Chill: 17°   Ceiling: Unl
Heat Index: 28°   Visibility: 10mi
Dew Point:   Wind: 16mph
Humidity: 40%   Direction: 290°WNW
Pressure: 30.18"   Gusts: 23mph
Location:  43.36°N, 70.48°W
Report Text: KSFM 212035Z AUTO 29014G20KT 10SM CLR M02/M14 A3018 RMK AO1
Loading
Personal Weather Stations






























Interactive Weather Map New forecast layout! Learn more

10-Day Weather Forecast

Advertisements
Track Severe Weather on mobile